Time;durP1;ratioP1;P1;durP2;ratioP2;P2;SDS_P1;SDS_P2;PMS_P1;PMS_P2;Temp;Humidity;BMP_temperature;BMP_pressure;BME280_temperature;BME280_humidity;BME280_pressure;Samples;Min_cycle;Max_cycle;Signal;HPM_P1;HPM_P2
2021/07/08 04:01:38;;;;;;;8.83;8.13;;;18.20;99.90;;;;;;5475110;23;20504;-68
2021/07/08 04:04:05;;;;;;;9.40;8.77;;;18.20;99.90;;;;;;4952323;28;20460;-70
2021/07/08 04:06:31;;;;;;;9.87;9.03;;;18.20;99.90;;;;;;4949188;28;20507;-68
2021/07/08 04:08:58;;;;;;;10.07;9.27;;;18.20;99.90;;;;;;4952308;28;20468;-69
2021/07/08 04:11:25;;;;;;;10.83;10.03;;;18.20;99.90;;;;;;4950627;28;20496;-70
2021/07/08 04:13:52;;;;;;;9.50;8.90;;;18.20;99.90;;;;;;4934853;29;20477;-68
2021/07/08 04:16:19;;;;;;;10.13;9.60;;;18.20;99.90;;;;;;4934704;29;20473;-70
2021/07/08 04:18:47;;;;;;;9.07;8.57;;;18.20;99.90;;;;;;4944365;29;20472;-69
2021/07/08 04:21:13;;;;;;;8.70;8.20;;;18.20;99.90;;;;;;4952489;28;20515;-72
2021/07/08 04:23:40;;;;;;;10.33;9.63;;;18.20;99.90;;;;;;4934821;29;20457;-70
2021/07/08 04:26:07;;;;;;;10.30;9.60;;;18.20;99.90;;;;;;4935048;29;20520;-68
2021/07/08 04:28:33;;;;;;;10.17;9.47;;;18.20;99.90;;;;;;4934897;29;20461;-68
2021/07/08 04:31:00;;;;;;;9.40;8.87;;;18.10;99.90;;;;;;4917816;29;20493;-69
2021/07/08 04:33:27;;;;;;;9.80;9.30;;;18.10;99.90;;;;;;4931431;29;21000;-68
2021/07/08 04:35:55;;;;;;;9.80;9.20;;;18.10;99.90;;;;;;4947184;29;20483;-69
2021/07/08 04:38:22;;;;;;;9.83;9.23;;;18.10;99.90;;;;;;4942020;29;20465;-69
2021/07/08 04:40:49;;;;;;;10.90;10.20;;;18.20;99.90;;;;;;4938089;29;20501;-72
2021/07/08 04:43:16;;;;;;;10.00;9.27;;;18.30;99.90;;;;;;4937408;29;20492;-69
2021/07/08 04:45:43;;;;;;;9.20;8.67;;;18.30;99.90;;;;;;4938409;29;21021;-71
2021/07/08 04:48:12;;;;;;;9.93;9.33;;;18.40;99.90;;;;;;4937838;29;20887;-70
2021/07/08 04:50:39;;;;;;;9.60;9.00;;;18.40;99.90;;;;;;4936822;29;20839;-70
2021/07/08 04:53:07;;;;;;;10.33;9.43;;;18.40;99.90;;;;;;4936846;29;20484;-70
2021/07/08 04:55:33;;;;;;;9.60;8.87;;;18.40;99.90;;;;;;4937317;29;20513;-71
2021/07/08 04:58:00;;;;;;;9.43;8.63;;;18.50;99.90;;;;;;4938240;29;20461;-70
2021/07/08 05:00:27;;;;;;;9.33;8.93;;;18.40;99.90;;;;;;4937255;29;20521;-70
2021/07/08 05:02:54;;;;;;;8.97;8.57;;;18.50;99.90;;;;;;4937521;29;20481;-70
2021/07/08 05:05:21;;;;;;;9.00;8.40;;;18.50;99.90;;;;;;4936125;29;20585;-70
2021/07/08 05:07:50;;;;;;;9.83;9.33;;;18.50;99.90;;;;;;4934942;29;20950;-70
2021/07/08 05:10:18;;;;;;;8.53;8.03;;;18.60;99.90;;;;;;4944008;29;20465;-71
2021/07/08 05:12:45;;;;;;;8.73;8.33;;;18.70;99.90;;;;;;4937232;29;20469;-70
2021/07/08 05:15:15;;;;;;;8.53;7.80;;;18.70;99.90;;;;;;4937799;29;21055;-70
2021/07/08 05:17:42;;;;;;;9.00;8.50;;;18.80;99.90;;;;;;4937411;29;20517;-69
2021/07/08 05:20:10;;;;;;;8.40;8.03;;;18.80;99.90;;;;;;4931052;29;20772;-70
2021/07/08 05:22:39;;;;;;;8.50;7.90;;;18.80;99.90;;;;;;4936707;29;20809;-70
2021/07/08 05:25:08;;;;;;;8.57;8.00;;;18.90;99.90;;;;;;4919383;29;20462;-70
2021/07/08 05:27:36;;;;;;;7.90;7.50;;;18.90;99.90;;;;;;4920179;29;20470;-71
2021/07/08 05:30:04;;;;;;;8.37;7.97;;;19.00;99.90;;;;;;4934556;29;20942;-72
2021/07/08 05:32:31;;;;;;;8.30;7.83;;;19.00;99.90;;;;;;4936569;29;20493;-69
2021/07/08 05:34:58;;;;;;;7.97;7.57;;;19.10;99.90;;;;;;4933780;29;20461;-71
2021/07/08 05:37:25;;;;;;;8.30;7.80;;;19.20;99.90;;;;;;4937863;29;20811;-70
2021/07/08 05:39:52;;;;;;;8.20;7.80;;;19.30;99.90;;;;;;4936665;29;20997;-70
2021/07/08 05:42:18;;;;;;;6.80;6.40;;;19.60;99.90;;;;;;4937186;29;20985;-69
2021/07/08 05:44:46;;;;;;;8.03;7.63;;;20.00;99.90;;;;;;4936629;29;20974;-69
2021/07/08 05:47:15;;;;;;;7.93;7.63;;;20.00;99.90;;;;;;4937196;29;20478;-68
2021/07/08 05:49:41;;;;;;;7.90;7.60;;;19.90;99.90;;;;;;4936073;29;20870;-70
2021/07/08 05:52:08;;;;;;;7.80;7.30;;;20.00;99.90;;;;;;4928756;29;20493;-71
2021/07/08 05:54:35;;;;;;;7.60;7.20;;;19.90;99.90;;;;;;4936400;29;20820;-71
2021/07/08 05:57:02;;;;;;;7.93;7.53;;;19.80;99.90;;;;;;4936589;29;20961;-71
2021/07/08 05:59:29;;;;;;;8.10;7.63;;;19.90;99.90;;;;;;4937136;29;20548;-72
2021/07/08 06:01:58;;;;;;;7.50;7.10;;;20.40;99.90;;;;;;4936245;29;20515;-71
2021/07/08 06:04:24;;;;;;;6.80;6.50;;;21.10;99.90;;;;;;4936213;29;20472;-69
2021/07/08 06:06:51;;;;;;;6.87;6.60;;;21.70;99.90;;;;;;4936359;29;20548;-68
2021/07/08 06:09:18;;;;;;;6.87;6.67;;;22.50;99.90;;;;;;4936572;29;20478;-70
2021/07/08 06:11:44;;;;;;;6.50;6.30;;;22.60;99.90;;;;;;4935505;29;20492;-71
2021/07/08 06:14:11;;;;;;;7.17;6.73;;;22.80;99.90;;;;;;4936461;29;20550;-71
2021/07/08 06:16:37;;;;;;;6.17;5.97;;;22.90;99.90;;;;;;4935954;29;20513;-70
2021/07/08 06:19:05;;;;;;;6.27;6.00;;;22.50;99.90;;;;;;4944955;29;20494;-72
2021/07/08 06:21:32;;;;;;;6.53;6.20;;;22.40;99.90;;;;;;4935374;29;20493;-71
2021/07/08 06:23:59;;;;;;;7.27;6.63;;;22.50;99.90;;;;;;4936857;29;20474;-70
2021/07/08 06:26:26;;;;;;;7.50;6.87;;;22.60;99.90;;;;;;4935916;29;21225;-70
2021/07/08 06:28:52;;;;;;;6.93;6.63;;;22.30;99.90;;;;;;4937919;29;20473;-69
2021/07/08 06:31:19;;;;;;;7.80;7.50;;;22.10;99.90;;;;;;4938939;29;20541;-70
2021/07/08 06:33:46;;;;;;;8.70;8.07;;;22.00;99.90;;;;;;4937197;29;20474;-70
2021/07/08 06:36:14;;;;;;;7.87;7.47;;;22.20;99.90;;;;;;4935179;29;20473;-70
2021/07/08 06:38:40;;;;;;;7.60;7.30;;;22.30;99.90;;;;;;4935584;29;20472;-70
2021/07/08 06:41:07;;;;;;;7.20;6.90;;;22.30;99.90;;;;;;4933593;29;20562;-69
2021/07/08 06:43:34;;;;;;;8.40;7.70;;;22.20;99.90;;;;;;4935489;29;20962;-68
2021/07/08 06:46:01;;;;;;;7.20;6.90;;;22.00;99.90;;;;;;4935703;29;20472;-68
2021/07/08 06:48:27;;;;;;;8.00;7.50;;;21.60;99.90;;;;;;4935887;29;20462;-69
2021/07/08 06:50:54;;;;;;;10.23;9.17;;;21.50;99.90;;;;;;4934971;29;20497;-68
2021/07/08 06:53:22;;;;;;;9.33;8.83;;;21.70;99.90;;;;;;4935344;29;20472;-69
2021/07/08 06:55:49;;;;;;;9.07;8.60;;;21.60;99.90;;;;;;4935961;29;20470;-69
2021/07/08 06:58:15;;;;;;;8.93;8.33;;;21.60;99.90;;;;;;4935119;29;20533;-69
2021/07/08 07:00:43;;;;;;;9.03;8.53;;;21.70;99.90;;;;;;4935844;29;20497;-69
2021/07/08 07:03:10;;;;;;;7.43;7.07;;;22.10;99.90;;;;;;4934797;29;20923;-69
2021/07/08 07:05:36;;;;;;;8.40;8.00;;;22.10;99.90;;;;;;4934887;29;20465;-69
2021/07/08 07:08:03;;;;;;;7.37;7.00;;;22.20;99.90;;;;;;4935196;29;20465;-69
2021/07/08 07:10:31;;;;;;;8.10;7.60;;;22.30;99.90;;;;;;4935826;29;20489;-69
2021/07/08 07:13:00;;;;;;;8.53;8.10;;;22.10;99.90;;;;;;4934905;29;20477;-69
2021/07/08 07:15:29;;;;;;;8.57;8.17;;;22.10;99.90;;;;;;4935340;29;20930;-69
2021/07/08 07:17:57;;;;;;;7.50;7.20;;;22.30;99.90;;;;;;4932779;29;20466;-68
2021/07/08 07:20:24;;;;;;;8.57;8.17;;;22.50;99.90;;;;;;4933253;29;20489;-69
2021/07/08 07:22:50;;;;;;;8.23;7.70;;;22.70;99.90;;;;;;4935132;29;20478;-69
2021/07/08 07:25:19;;;;;;;7.97;7.67;;;22.70;99.90;;;;;;4935416;29;20465;-69
2021/07/08 07:27:50;;;;;;;7.87;7.40;;;22.50;99.90;;;;;;4935230;29;20799;-69
2021/07/08 07:30:17;;;;;;;8.83;8.10;;;22.40;99.90;;;;;;4933912;29;20461;-69
2021/07/08 07:32:44;;;;;;;7.60;7.27;;;22.70;99.90;;;;;;4934693;29;20466;-68
2021/07/08 07:35:12;;;;;;;8.47;8.07;;;23.00;99.90;;;;;;4934364;29;20507;-69
2021/07/08 07:37:38;;;;;;;7.97;7.20;;;23.00;99.90;;;;;;4935293;29;20457;-70
2021/07/08 07:40:07;;;;;;;8.20;7.80;;;22.90;99.90;;;;;;4935298;29;20472;-69
2021/07/08 07:42:34;;;;;;;7.80;7.30;;;22.90;99.90;;;;;;4935214;29;20469;-69
2021/07/08 07:45:02;;;;;;;7.90;7.47;;;23.20;99.90;;;;;;4934982;29;20517;-69
2021/07/08 07:47:29;;;;;;;8.80;8.30;;;23.10;99.90;;;;;;4936219;29;20520;-69
2021/07/08 07:49:56;;;;;;;6.50;6.23;;;23.20;99.90;;;;;;4934777;29;20787;-68
2021/07/08 07:52:23;;;;;;;7.17;6.70;;;23.60;99.90;;;;;;4934421;29;20485;-69
2021/07/08 07:54:49;;;;;;;6.80;6.50;;;23.90;99.90;;;;;;4934642;29;20841;-69
2021/07/08 07:57:16;;;;;;;7.67;7.37;;;24.00;99.90;;;;;;4933786;29;20474;-69
2021/07/08 07:59:43;;;;;;;7.67;7.37;;;23.70;99.90;;;;;;4934312;29;20457;-69
2021/07/08 08:02:12;;;;;;;7.50;7.20;;;24.10;99.90;;;;;;4933492;29;20655;-69
2021/07/08 08:04:44;;;;;;;7.40;7.03;;;24.80;99.90;;;;;;4934136;29;20538;-69
2021/07/08 08:09:56;;;;;;;6.23;5.93;;;26.30;99.90;;;;;;4933827;29;20776;-68
2021/07/08 08:12:23;;;;;;;6.20;6.00;;;26.50;99.90;;;;;;4938343;29;20489;-68
2021/07/08 08:14:50;;;;;;;6.33;5.93;;;26.70;99.90;;;;;;4938358;29;20461;-70
2021/07/08 08:17:18;;;;;;;6.73;6.33;;;26.20;99.90;;;;;;4937646;29;20459;-69
2021/07/08 08:19:45;;;;;;;6.33;5.83;;;25.70;99.90;;;;;;4937384;29;20459;-67
2021/07/08 08:22:11;;;;;;;6.20;5.60;;;25.90;99.90;;;;;;4936903;29;20994;-67
2021/07/08 08:24:38;;;;;;;5.47;5.07;;;25.80;99.90;;;;;;4937818;29;20491;-67
2021/07/08 08:27:06;;;;;;;5.03;4.83;;;25.90;99.90;;;;;;4938006;29;20476;-67
2021/07/08 08:29:33;;;;;;;5.10;4.90;;;26.70;99.90;;;;;;4938267;29;20482;-67
2021/07/08 08:31:59;;;;;;;5.50;5.30;;;27.00;99.90;;;;;;4937043;29;20485;-70
2021/07/08 08:34:27;;;;;;;5.83;5.57;;;27.00;99.90;;;;;;4935182;29;20487;-67
2021/07/08 08:36:54;;;;;;;5.73;5.30;;;26.40;99.90;;;;;;4938054;29;20472;-67
2021/07/08 08:39:21;;;;;;;5.80;5.60;;;26.00;99.90;;;;;;4937695;29;20492;-67
2021/07/08 08:41:48;;;;;;;5.60;5.40;;;25.60;99.90;;;;;;4935837;29;20495;-67
2021/07/08 08:44:14;;;;;;;5.50;5.40;;;25.50;99.90;;;;;;4935469;29;20479;-67
2021/07/08 08:46:41;;;;;;;6.50;6.10;;;25.60;99.90;;;;;;4937428;29;20952;-68
2021/07/08 08:49:08;;;;;;;6.53;6.30;;;25.70;99.90;;;;;;4919848;29;20875;-68
2021/07/08 08:51:38;;;;;;;6.77;6.40;;;25.70;99.90;;;;;;4934582;29;20500;-69
2021/07/08 08:54:05;;;;;;;6.83;6.60;;;25.50;99.90;;;;;;4932152;29;20470;-68
2021/07/08 08:56:31;;;;;;;5.90;5.70;;;25.10;99.90;;;;;;4936410;29;20785;-68
2021/07/08 08:58:58;;;;;;;6.37;6.07;;;24.80;99.90;;;;;;4936995;29;20465;-69
2021/07/08 09:01:24;;;;;;;6.30;5.90;;;24.70;99.90;;;;;;4935581;29;20493;-69
2021/07/08 09:03:51;;;;;;;6.20;5.90;;;24.70;99.90;;;;;;4935915;29;20815;-69
2021/07/08 09:06:20;;;;;;;6.23;5.97;;;24.90;99.90;;;;;;4936524;29;20802;-69
2021/07/08 09:08:50;;;;;;;6.33;6.07;;;24.80;99.90;;;;;;4936991;29;20945;-69
2021/07/08 09:11:18;;;;;;;6.63;6.03;;;24.70;99.90;;;;;;4932152;29;21018;-69
2021/07/08 09:13:51;;;;;;;6.20;6.00;;;24.90;99.90;;;;;;4933900;29;20473;-68
2021/07/08 09:16:20;;;;;;;6.80;6.20;;;25.10;99.90;;;;;;4935926;29;20469;-69
2021/07/08 09:18:58;;;;;;;7.33;6.73;;;25.10;99.90;;;;;;4937254;29;20457;-69
2021/07/08 09:21:25;;;;;;;6.50;6.00;;;25.10;99.90;;;;;;4932761;29;20500;-68
2021/07/08 09:24:13;;;;;;;6.93;6.40;;;25.00;99.90;;;;;;4934197;29;20474;-68
2021/07/08 09:26:43;;;;;;;7.20;6.77;;;24.80;99.90;;;;;;4936349;29;20844;-69
2021/07/08 09:29:11;;;;;;;6.93;6.60;;;24.90;99.90;;;;;;4937313;29;20544;-67
2021/07/08 09:31:39;;;;;;;5.97;5.80;;;25.20;99.90;;;;;;4934801;29;20490;-67
2021/07/08 09:34:16;;;;;;;6.47;6.17;;;25.50;99.90;;;;;;4937056;29;20473;-68
2021/07/08 09:36:44;;;;;;;6.67;6.43;;;25.60;99.90;;;;;;4936995;29;20469;-67
2021/07/08 09:39:12;;;;;;;6.70;6.50;;;25.60;99.90;;;;;;4936665;29;20473;-67
2021/07/08 09:41:53;;;;;;;5.70;5.50;;;25.70;99.90;;;;;;4937255;29;20537;-66
2021/07/08 09:44:21;;;;;;;7.23;6.80;;;25.60;99.90;;;;;;4936969;29;20581;-67
2021/07/08 09:46:48;;;;;;;6.37;6.03;;;25.60;99.90;;;;;;4937035;29;20571;-67
2021/07/08 09:49:15;;;;;;;5.67;5.47;;;25.80;99.90;;;;;;4935753;29;20521;-67
2021/07/08 09:51:44;;;;;;;5.57;5.30;;;25.90;99.90;;;;;;4936658;29;20484;-67
2021/07/08 09:54:15;;;;;;;6.10;5.80;;;25.90;99.90;;;;;;4936022;29;21179;-67
2021/07/08 09:56:47;;;;;;;5.47;5.17;;;26.10;99.90;;;;;;4934172;29;20523;-67
2021/07/08 09:59:15;;;;;;;6.57;5.93;;;26.20;99.90;;;;;;4937716;29;20877;-69
2021/07/08 10:01:43;;;;;;;5.97;5.57;;;26.20;99.90;;;;;;4935043;29;20855;-67
2021/07/08 10:04:11;;;;;;;5.37;5.17;;;26.20;99.90;;;;;;4936208;29;20462;-67
2021/07/08 10:06:38;;;;;;;5.43;5.07;;;26.30;99.90;;;;;;4935390;29;20578;-67
2021/07/08 10:09:06;;;;;;;4.93;4.73;;;26.40;99.90;;;;;;4934054;29;20494;-68
2021/07/08 10:11:35;;;;;;;4.50;4.40;;;26.40;99.90;;;;;;4936351;29;20599;-66
2021/07/08 10:14:04;;;;;;;5.30;5.10;;;26.10;99.90;;;;;;4936701;29;20522;-67
2021/07/08 10:16:33;;;;;;;4.57;4.37;;;26.10;99.90;;;;;;4935736;29;20475;-67
2021/07/08 10:19:03;;;;;;;3.60;3.50;;;26.10;99.90;;;;;;4935819;29;20458;-67
2021/07/08 10:21:31;;;;;;;4.53;4.43;;;26.00;99.90;;;;;;4935157;29;20504;-68
2021/07/08 10:23:59;;;;;;;4.60;4.30;;;25.90;99.90;;;;;;4936569;29;20565;-67
2021/07/08 10:26:26;;;;;;;4.67;4.57;;;25.70;99.90;;;;;;4935856;29;20949;-69
2021/07/08 10:28:56;;;;;;;5.27;5.07;;;25.70;99.90;;;;;;4936413;29;20559;-69
2021/07/08 10:31:23;;;;;;;5.50;5.20;;;25.60;99.90;;;;;;4935577;29;20588;-69
2021/07/08 10:34:10;;;;;;;4.60;4.50;;;25.70;99.90;;;;;;4936030;29;20497;-69
2021/07/08 10:36:38;;;;;;;5.30;5.10;;;25.70;99.90;;;;;;4935793;29;20476;-69
2021/07/08 10:39:06;;;;;;;5.53;5.30;;;25.60;99.90;;;;;;4936052;29;20485;-68
2021/07/08 10:41:45;;;;;;;5.20;5.00;;;25.70;99.90;;;;;;4936099;29;20509;-69
2021/07/08 10:44:57;;;;;;;5.00;4.90;;;25.90;99.90;;;;;;4936250;29;20496;-69
2021/07/08 10:47:46;;;;;;;4.83;4.73;;;26.10;99.90;;;;;;4898667;29;20470;-69
2021/07/08 10:50:34;;;;;;;6.07;5.67;;;26.30;99.90;;;;;;4911217;29;20482;-69
2021/07/08 10:53:16;;;;;;;5.63;5.23;;;26.30;99.90;;;;;;4917616;29;20519;-69
2021/07/08 10:55:45;;;;;;;5.23;5.10;;;26.30;99.90;;;;;;4916485;29;20467;-70
2021/07/08 10:58:37;;;;;;;6.77;6.47;;;26.30;99.90;;;;;;4929957;29;20526;-69
2021/07/08 11:01:05;;;;;;;4.93;4.77;;;26.40;99.90;;;;;;4934521;29;20510;-69
2021/07/08 11:03:54;;;;;;;5.50;5.23;;;26.40;99.90;;;;;;4929970;29;20524;-70
2021/07/08 11:06:24;;;;;;;6.00;5.70;;;26.60;99.90;;;;;;4913973;29;20798;-70
2021/07/08 11:08:59;;;;;;;5.63;5.13;;;26.80;99.90;;;;;;4935425;29;20472;-69
2021/07/08 11:12:11;;;;;;;5.47;5.17;;;26.90;99.90;;;;;;4934311;29;20474;-69
2021/07/08 11:14:41;;;;;;;4.90;4.67;;;26.80;99.90;;;;;;4903666;29;20488;-70
2021/07/08 11:17:22;;;;;;;4.97;4.80;;;26.80;99.90;;;;;;4924512;29;20965;-70
2021/07/08 11:19:52;;;;;;;4.40;4.40;;;27.00;99.90;;;;;;4934918;29;20449;-68
2021/07/08 11:22:39;;;;;;;5.07;4.90;;;27.10;99.90;;;;;;4934226;29;20498;-69
2021/07/08 11:25:08;;;;;;;5.43;5.17;;;27.00;99.90;;;;;;4930568;29;20558;-69
2021/07/08 11:27:45;;;;;;;4.60;4.50;;;26.90;99.90;;;;;;4934489;29;20552;-69
2021/07/08 11:30:33;;;;;;;5.37;5.27;;;27.10;99.90;;;;;;4929999;29;20468;-69
2021/07/08 11:33:03;;;;;;;4.80;4.70;;;27.10;99.90;;;;;;4925255;29;20468;-69
2021/07/08 11:35:35;;;;;;;5.20;4.80;;;26.90;99.90;;;;;;4934531;29;20479;-69
2021/07/08 11:38:04;;;;;;;4.57;4.47;;;27.10;99.90;;;;;;4934825;29;20463;-69
2021/07/08 11:40:36;;;;;;;4.83;4.57;;;27.20;99.90;;;;;;4934731;29;20563;-69
2021/07/08 11:43:13;;;;;;;4.50;4.30;;;27.40;99.90;;;;;;4934031;29;20554;-69
2021/07/08 11:45:40;;;;;;;5.10;4.93;;;27.40;99.90;;;;;;4934570;29;20467;-67
2021/07/08 11:48:07;;;;;;;4.57;4.37;;;27.30;99.90;;;;;;4934992;29;20467;-68
2021/07/08 11:50:37;;;;;;;4.80;4.60;;;27.20;99.90;;;;;;4933983;29;20523;-68
2021/07/08 11:53:10;;;;;;;4.90;4.80;;;27.30;99.90;;;;;;4934138;29;20458;-67
2021/07/08 11:55:38;;;;;;;4.90;4.60;;;27.30;99.90;;;;;;4934185;29;20472;-67
2021/07/08 11:58:05;;;;;;;4.40;4.30;;;27.00;99.90;;;;;;4935240;29;20471;-67
2021/07/08 12:00:37;;;;;;;4.73;4.53;;;26.80;99.90;;;;;;4933817;29;20955;-67
2021/07/08 12:03:19;;;;;;;3.90;3.80;;;27.00;99.90;;;;;;4931886;29;20493;-69
2021/07/08 12:05:47;;;;;;;4.40;4.10;;;27.20;99.90;;;;;;4916586;29;20897;-67
2021/07/08 12:08:24;;;;;;;3.70;3.70;;;27.50;99.90;;;;;;4932859;29;20475;-67
2021/07/08 12:10:56;;;;;;;3.90;3.70;;;27.50;99.90;;;;;;4934022;29;20487;-67
2021/07/08 12:13:24;;;;;;;4.17;4.03;;;27.50;99.90;;;;;;4933841;29;20836;-67
2021/07/08 12:15:50;;;;;;;4.70;4.20;;;27.50;99.90;;;;;;4934411;29;20471;-68
2021/07/08 12:18:17;;;;;;;4.20;4.10;;;27.60;99.90;;;;;;4934627;29;20468;-67
2021/07/08 12:20:49;;;;;;;4.30;4.10;;;27.40;99.90;;;;;;4934320;29;20481;-68
2021/07/08 12:23:16;;;;;;;4.23;3.83;;;27.30;99.90;;;;;;4932320;29;20504;-67
2021/07/08 12:25:43;;;;;;;4.10;4.10;;;27.40;99.90;;;;;;4934139;29;20456;-67
2021/07/08 12:28:10;;;;;;;4.67;4.47;;;27.50;99.90;;;;;;4934333;29;20470;-67
2021/07/08 12:30:37;;;;;;;4.57;4.47;;;27.60;99.90;;;;;;4933462;29;20521;-67
2021/07/08 12:33:09;;;;;;;5.40;5.17;;;27.80;99.90;;;;;;4934438;29;20468;-67
2021/07/08 12:35:38;;;;;;;4.57;4.37;;;27.90;99.90;;;;;;4932676;29;20483;-67
2021/07/08 12:38:07;;;;;;;4.03;3.90;;;27.90;99.90;;;;;;4934663;29;20526;-67
2021/07/08 12:40:34;;;;;;;3.30;3.20;;;28.00;99.90;;;;;;4933365;29;20483;-67
2021/07/08 12:43:06;;;;;;;4.17;4.07;;;28.00;99.90;;;;;;4933956;29;20492;-67
2021/07/08 12:45:35;;;;;;;3.60;3.50;;;27.90;99.90;;;;;;4934337;29;20961;-67
2021/07/08 12:48:02;;;;;;;4.97;4.60;;;27.80;99.90;;;;;;4934174;29;20475;-69
2021/07/08 12:50:34;;;;;;;4.67;4.37;;;27.80;99.90;;;;;;4932925;29;20484;-68
2021/07/08 12:53:00;;;;;;;4.53;4.43;;;27.80;99.90;;;;;;4933063;29;20463;-69
2021/07/08 12:55:41;;;;;;;5.30;4.80;;;27.80;99.90;;;;;;4931896;29;20464;-69
2021/07/08 12:58:10;;;;;;;4.27;4.17;;;27.70;99.90;;;;;;4934122;29;20504;-69
2021/07/08 13:00:38;;;;;;;3.73;3.63;;;27.70;99.90;;;;;;4936594;29;20502;-69
2021/07/08 13:03:06;;;;;;;4.30;4.07;;;27.70;99.90;;;;;;4936952;29;20535;-68
2021/07/08 13:05:39;;;;;;;4.13;4.00;;;27.90;99.90;;;;;;4936198;29;20559;-68
2021/07/08 13:08:10;;;;;;;4.30;4.10;;;27.90;99.90;;;;;;4942210;29;20470;-68
2021/07/08 13:10:42;;;;;;;4.63;4.40;;;28.10;99.90;;;;;;4943003;29;20811;-68
2021/07/08 13:13:10;;;;;;;4.60;4.40;;;28.00;99.90;;;;;;4936930;29;20478;-69
2021/07/08 13:15:44;;;;;;;4.43;4.33;;;28.00;99.90;;;;;;4936627;29;20472;-69
2021/07/08 13:18:12;;;;;;;4.23;4.13;;;28.10;99.90;;;;;;4937494;29;20470;-69
2021/07/08 13:20:41;;;;;;;4.87;4.67;;;28.20;99.90;;;;;;4935088;29;20496;-68
2021/07/08 13:23:17;;;;;;;4.00;3.90;;;28.50;99.90;;;;;;4937229;29;20483;-69
2021/07/08 13:25:46;;;;;;;4.90;4.77;;;28.60;99.90;;;;;;4936301;29;20487;-68
2021/07/08 13:28:29;;;;;;;4.33;4.23;;;28.50;99.90;;;;;;4937801;29;20543;-69
2021/07/08 13:31:02;;;;;;;4.50;4.30;;;28.20;99.90;;;;;;4935929;29;20498;-69
2021/07/08 13:33:36;;;;;;;4.33;4.13;;;27.80;99.90;;;;;;4935977;29;20532;-69
2021/07/08 13:36:12;;;;;;;4.07;3.90;;;27.60;99.90;;;;;;4935153;29;20501;-69
2021/07/08 13:38:40;;;;;;;3.97;3.87;;;27.60;99.90;;;;;;4936658;29;20456;-69
2021/07/08 13:41:12;;;;;;;3.87;3.77;;;27.40;99.90;;;;;;4936198;29;20485;-69
2021/07/08 13:43:44;;;;;;;4.50;4.40;;;27.60;99.90;;;;;;4935926;29;20550;-68
2021/07/08 13:46:24;;;;;;;4.50;4.40;;;27.70;99.90;;;;;;4935494;29;20475;-69
2021/07/08 13:48:54;;;;;;;4.30;4.20;;;27.90;99.90;;;;;;4936125;29;20567;-68
2021/07/08 13:51:22;;;;;;;4.33;4.13;;;27.70;99.90;;;;;;4927208;29;20479;-69
2021/07/08 13:53:49;;;;;;;6.67;6.23;;;27.80;99.90;;;;;;4936229;29;20455;-69
2021/07/08 13:56:18;;;;;;;3.73;3.70;;;27.80;99.90;;;;;;4935447;29;20800;-69
2021/07/08 13:58:47;;;;;;;4.33;4.23;;;27.80;99.90;;;;;;4936020;29;20460;-69
2021/07/08 14:01:15;;;;;;;5.13;4.83;;;27.60;99.90;;;;;;4935430;29;20571;-69
2021/07/08 14:03:42;;;;;;;5.10;4.63;;;27.20;99.90;;;;;;4935654;29;20500;-68
2021/07/08 14:06:09;;;;;;;5.03;4.90;;;26.90;99.90;;;;;;4934740;29;20972;-69
2021/07/08 14:08:38;;;;;;;5.33;5.13;;;26.60;99.90;;;;;;4935445;29;20482;-69
2021/07/08 14:11:06;;;;;;;5.37;5.17;;;26.50;99.90;;;;;;4935406;29;20493;-69
2021/07/08 14:13:34;;;;;;;5.10;5.00;;;26.50;99.90;;;;;;4935637;29;20918;-69
2021/07/08 14:16:02;;;;;;;8.20;5.53;;;26.40;99.90;;;;;;4925515;29;20473;-68
2021/07/08 14:18:29;;;;;;;4.57;4.40;;;26.40;99.90;;;;;;4935252;29;20481;-69
2021/07/08 14:20:55;;;;;;;5.10;4.90;;;26.40;99.90;;;;;;4929081;29;20846;-68
2021/07/08 14:23:23;;;;;;;5.50;5.03;;;26.30;99.90;;;;;;4934634;29;20481;-68
2021/07/08 14:25:50;;;;;;;4.80;4.70;;;26.40;99.90;;;;;;4934120;29;20465;-68
2021/07/08 14:28:17;;;;;;;4.53;4.43;;;26.50;99.90;;;;;;4934831;29;20521;-69
2021/07/08 14:30:45;;;;;;;4.80;4.60;;;26.60;99.90;;;;;;4934702;29;20998;-69
2021/07/08 14:33:12;;;;;;;4.37;4.27;;;26.60;99.90;;;;;;4934909;29;20465;-69
2021/07/08 14:35:39;;;;;;;4.80;4.60;;;26.70;99.90;;;;;;4934405;29;20470;-68
2021/07/08 14:38:07;;;;;;;5.13;5.03;;;26.50;99.90;;;;;;4935747;29;20465;-69
2021/07/08 14:40:34;;;;;;;4.60;4.50;;;26.10;99.90;;;;;;4934719;29;21065;-69
2021/07/08 14:43:09;;;;;;;4.87;4.67;;;25.80;99.90;;;;;;4935070;29;20577;-69
2021/07/08 14:45:38;;;;;;;5.20;5.00;;;25.50;99.90;;;;;;4935176;29;20453;-69
2021/07/08 14:48:14;;;;;;;4.40;4.20;;;25.20;99.90;;;;;;4934772;29;20544;-68
2021/07/08 14:50:41;;;;;;;4.77;4.57;;;25.00;99.90;;;;;;4934001;29;20561;-69
2021/07/08 14:53:08;;;;;;;3.63;3.43;;;24.90;99.90;;;;;;4933610;29;20482;-67
2021/07/08 14:55:35;;;;;;;3.27;3.27;;;24.60;99.90;;;;;;4934576;29;20617;-67
2021/07/08 14:58:02;;;;;;;4.17;3.97;;;24.20;99.90;;;;;;4924820;29;20568;-68
2021/07/08 15:00:29;;;;;;;2.23;2.23;;;23.90;99.90;;;;;;4932746;29;20486;-68
2021/07/08 15:02:56;;;;;;;9.50;5.30;;;22.90;99.90;;;;;;4934294;29;20970;-68
2021/07/08 15:05:24;;;;;;;7.97;4.87;;;22.00;99.90;;;;;;4932841;29;20481;-69
2021/07/08 15:07:51;;;;;;;4.83;4.53;;;20.90;99.90;;;;;;4935050;29;20537;-69
2021/07/08 15:10:18;;;;;;;12.30;8.47;;;19.70;99.90;;;;;;4934105;29;20500;-67
2021/07/08 15:12:44;;;;;;;6.07;5.60;;;19.10;99.90;;;;;;4934870;29;20517;-66
2021/07/08 15:15:11;;;;;;;8.80;7.90;;;18.70;99.90;;;;;;4934298;29;20476;-68
2021/07/08 15:17:39;;;;;;;6.57;6.20;;;18.40;99.90;;;;;;4934546;29;20465;-67
2021/07/08 15:20:07;;;;;;;8.47;7.87;;;18.20;99.90;;;;;;4933125;29;20829;-67
2021/07/08 15:22:35;;;;;;;9.80;9.00;;;18.20;99.90;;;;;;4934383;29;20493;-67
2021/07/08 15:25:01;;;;;;;6.90;6.50;;;18.20;99.90;;;;;;4934754;29;20470;-67
2021/07/08 15:27:28;;;;;;;10.47;9.57;;;18.10;99.90;;;;;;4933281;29;20608;-67
2021/07/08 15:29:55;;;;;;;7.13;6.73;;;18.00;99.90;;;;;;4933584;29;20466;-69
2021/07/08 15:32:21;;;;;;;7.57;7.10;;;18.00;99.90;;;;;;4934587;29;20485;-67
2021/07/08 15:34:56;;;;;;;9.57;8.57;;;18.00;99.90;;;;;;4937666;29;20820;-68
2021/07/08 15:37:23;;;;;;;8.50;7.80;;;18.00;99.90;;;;;;4936420;29;20493;-68
2021/07/08 15:39:53;;;;;;;9.87;9.07;;;18.00;99.90;;;;;;4935618;29;20810;-67
2021/07/08 15:42:20;;;;;;;9.27;8.57;;;18.10;99.90;;;;;;4934495;29;20489;-67
2021/07/08 15:44:47;;;;;;;10.50;9.80;;;18.20;99.90;;;;;;4934964;29;20567;-69
2021/07/08 15:47:15;;;;;;;11.20;10.37;;;18.30;99.90;;;;;;4933530;29;20476;-71
2021/07/08 15:49:41;;;;;;;11.93;10.90;;;18.50;99.90;;;;;;4919626;29;20473;-69
2021/07/08 15:52:10;;;;;;;12.37;11.37;;;18.60;99.90;;;;;;4934540;29;20542;-69
2021/07/08 15:54:37;;;;;;;11.80;11.00;;;18.70;99.90;;;;;;4934127;29;20465;-69
2021/07/08 15:57:06;;;;;;;11.07;10.17;;;18.70;99.90;;;;;;4928990;29;20476;-68
2021/07/08 15:59:33;;;;;;;11.23;10.50;;;18.80;99.90;;;;;;4932978;29;20469;-67
2021/07/08 16:02:00;;;;;;;12.00;10.87;;;18.80;99.90;;;;;;4936917;29;20501;-68
2021/07/08 16:04:27;;;;;;;11.43;10.37;;;18.80;99.90;;;;;;4949673;29;20560;-67
2021/07/08 16:06:54;;;;;;;11.10;10.30;;;18.80;99.90;;;;;;4937484;29;20576;-69
2021/07/08 16:09:21;;;;;;;9.37;8.87;;;18.80;99.90;;;;;;4934658;29;20930;-69
2021/07/08 16:11:47;;;;;;;10.10;9.40;;;18.70;99.90;;;;;;4937733;29;20486;-70
2021/07/08 16:14:15;;;;;;;11.50;10.70;;;18.80;99.90;;;;;;4933390;29;20458;-70
2021/07/08 16:16:42;;;;;;;12.80;11.90;;;18.80;99.90;;;;;;4915471;29;20471;-71
2021/07/08 16:19:08;;;;;;;12.00;11.17;;;18.90;99.90;;;;;;4919824;29;20461;-69
2021/07/08 16:21:35;;;;;;;12.53;11.73;;;19.00;99.90;;;;;;4936628;29;20493;-71
2021/07/08 16:24:02;;;;;;;11.20;10.30;;;19.00;99.90;;;;;;4934113;29;20493;-70
2021/07/08 16:26:29;;;;;;;11.57;10.47;;;19.00;99.90;;;;;;4935335;29;20950;-71
2021/07/08 16:28:55;;;;;;;10.50;9.77;;;19.00;99.90;;;;;;4933988;29;20477;-71
2021/07/08 16:31:23;;;;;;;11.33;10.40;;;18.90;99.90;;;;;;4936555;29;20548;-71
2021/07/08 16:33:50;;;;;;;12.80;11.80;;;18.80;99.90;;;;;;4937471;29;20458;-69
2021/07/08 16:36:17;;;;;;;12.70;11.80;;;18.90;99.90;;;;;;4936982;29;20508;-71
2021/07/08 16:38:43;;;;;;;13.77;12.67;;;19.00;99.90;;;;;;4937443;29;20512;-71
2021/07/08 16:41:10;;;;;;;13.27;12.30;;;19.00;99.90;;;;;;4938008;29;20489;-71
2021/07/08 16:43:38;;;;;;;13.50;12.50;;;19.00;99.90;;;;;;4937389;29;20494;-70
2021/07/08 16:46:06;;;;;;;13.80;12.83;;;19.10;99.90;;;;;;4934690;29;20479;-70
2021/07/08 16:48:34;;;;;;;12.53;11.50;;;19.20;99.90;;;;;;4937588;29;20469;-70
2021/07/08 16:51:02;;;;;;;12.87;11.63;;;19.20;99.90;;;;;;4937618;29;20521;-71
2021/07/08 16:53:29;;;;;;;10.83;10.03;;;19.20;99.90;;;;;;4938263;29;20537;-70
2021/07/08 16:55:56;;;;;;;10.83;9.93;;;19.20;99.90;;;;;;4937572;29;20973;-70
2021/07/08 16:58:22;;;;;;;10.23;9.43;;;19.20;99.90;;;;;;4938657;29;20465;-71